DFOO/BOY METAR and TAF weather

Enter ICAO airport designator
Station Type Date Time Source
DFOO METAR 2020/12/06 01:00 UTC NOAA

DFOO 060100Z 20004KT 8000 NSC 24/11 Q1012


Station Type Date Time Source
DFOO Decoded METAR 2020/12/06 01:00 UTC NOAA

Bobo-Dioulasso, Burkina Faso (DFOO) 11-10N 004-19W 460M
Dec 05, 2020 - 08:00 PM EST / 2020.12.06 0100 UTC
Wind: from the SSW (200 degrees) at 5 MPH (4 KT):0
Visibility: 4 mile(s):0
Temperature: 75 F (24 C)
Dew Point: 51 F (11 C)
Relative Humidity: 43%
Pressure (altimeter): 29.88 in. Hg (1012 hPa)
ob: DFOO 060100Z 20004KT 8000 NSC 24/11 Q1012
cycle: 1

Station Type Date Time Source
DFOO TAF 2020/12/05 18:09 UTC NOAA

TAF DFOO 051700Z 0518/0618 VRB07KT 8000 NSC
TEMPO 0606/0610 4000 DU

Example: see airport list